sensor_id;sensor_type;location;lat;lon;timestamp;P1;durP1;ratioP1;P2;durP2;ratioP2
39860;SDS011;25529;49.346;20.886;2022-09-03T00:04:59;18.92;;;5.72;;
39860;SDS011;25529;49.346;20.886;2022-09-03T00:07:31;16.00;;;5.38;;
39860;SDS011;25529;49.346;20.886;2022-09-03T00:10:01;23.27;;;5.40;;
39860;SDS011;25529;49.346;20.886;2022-09-03T00:12:28;20.45;;;5.70;;
39860;SDS011;25529;49.346;20.886;2022-09-03T00:15:01;16.08;;;5.05;;
39860;SDS011;25529;49.346;20.886;2022-09-03T00:17:31;15.63;;;5.30;;
39860;SDS011;25529;49.346;20.886;2022-09-03T00:23:13;18.88;;;5.50;;
39860;SDS011;25529;49.346;20.886;2022-09-03T00:25:23;19.50;;;5.30;;
39860;SDS011;25529;49.346;20.886;2022-09-03T00:27:50;19.27;;;5.57;;
39860;SDS011;25529;49.346;20.886;2022-09-03T00:30:17;17.58;;;4.97;;
39860;SDS011;25529;49.346;20.886;2022-09-03T00:32:56;14.57;;;4.75;;
39860;SDS011;25529;49.346;20.886;2022-09-03T00:35:26;15.45;;;5.15;;
39860;SDS011;25529;49.346;20.886;2022-09-03T00:37:53;17.77;;;5.38;;
39860;SDS011;25529;49.346;20.886;2022-09-03T00:40:31;16.20;;;5.47;;
39860;SDS011;25529;49.346;20.886;2022-09-03T00:42:58;18.23;;;5.57;;
39860;SDS011;25529;49.346;20.886;2022-09-03T00:45:39;15.63;;;5.20;;
39860;SDS011;25529;49.346;20.886;2022-09-03T00:48:19;16.15;;;5.35;;
39860;SDS011;25529;49.346;20.886;2022-09-03T00:51:02;17.02;;;5.45;;
39860;SDS011;25529;49.346;20.886;2022-09-03T00:53:33;17.35;;;5.25;;
39860;SDS011;25529;49.346;20.886;2022-09-03T01:02:02;14.88;;;4.65;;
39860;SDS011;25529;49.346;20.886;2022-09-03T01:09:15;14.48;;;4.82;;
39860;SDS011;25529;49.346;20.886;2022-09-03T01:24:38;16.40;;;5.00;;
39860;SDS011;25529;49.346;20.886;2022-09-03T01:48:19;11.50;;;4.45;;
39860;SDS011;25529;49.346;20.886;2022-09-03T01:50:57;16.58;;;4.80;;
39860;SDS011;25529;49.346;20.886;2022-09-03T01:53:51;17.02;;;4.60;;
39860;SDS011;25529;49.346;20.886;2022-09-03T01:59:10;15.32;;;4.57;;
39860;SDS011;25529;49.346;20.886;2022-09-03T02:01:44;10.52;;;4.10;;
39860;SDS011;25529;49.346;20.886;2022-09-03T02:04:18;12.40;;;4.28;;
39860;SDS011;25529;49.346;20.886;2022-09-03T02:06:44;14.77;;;4.47;;
39860;SDS011;25529;49.346;20.886;2022-09-03T02:09:13;14.63;;;4.65;;
39860;SDS011;25529;49.346;20.886;2022-09-03T02:11:39;13.90;;;4.55;;
39860;SDS011;25529;49.346;20.886;2022-09-03T02:14:05;10.40;;;4.03;;
39860;SDS011;25529;49.346;20.886;2022-09-03T02:16:30;11.43;;;4.10;;
39860;SDS011;25529;49.346;20.886;2022-09-03T02:18:58;10.60;;;4.38;;
39860;SDS011;25529;49.346;20.886;2022-09-03T02:21:26;13.10;;;3.83;;
39860;SDS011;25529;49.346;20.886;2022-09-03T02:23:52;13.75;;;4.32;;
39860;SDS011;25529;49.346;20.886;2022-09-03T02:26:20;10.98;;;3.95;;
39860;SDS011;25529;49.346;20.886;2022-09-03T02:28:45;12.15;;;4.30;;
39860;SDS011;25529;49.346;20.886;2022-09-03T02:31:12;12.40;;;4.10;;
39860;SDS011;25529;49.346;20.886;2022-09-03T02:33:38;10.75;;;3.92;;
39860;SDS011;25529;49.346;20.886;2022-09-03T02:36:05;9.55;;;3.97;;
39860;SDS011;25529;49.346;20.886;2022-09-03T02:38:31;10.40;;;3.80;;
39860;SDS011;25529;49.346;20.886;2022-09-03T02:40:56;11.27;;;4.00;;
39860;SDS011;25529;49.346;20.886;2022-09-03T02:45:54;11.80;;;4.03;;
39860;SDS011;25529;49.346;20.886;2022-09-03T02:48:22;11.00;;;3.90;;
39860;SDS011;25529;49.346;20.886;2022-09-03T02:50:48;12.60;;;4.10;;
39860;SDS011;25529;49.346;20.886;2022-09-03T02:53:14;8.95;;;3.80;;
39860;SDS011;25529;49.346;20.886;2022-09-03T02:55:40;11.40;;;3.90;;
39860;SDS011;25529;49.346;20.886;2022-09-03T02:58:05;12.02;;;4.15;;
39860;SDS011;25529;49.346;20.886;2022-09-03T03:00:32;11.15;;;3.80;;
39860;SDS011;25529;49.346;20.886;2022-09-03T03:02:59;10.07;;;4.28;;
39860;SDS011;25529;49.346;20.886;2022-09-03T03:05:26;11.57;;;4.07;;
39860;SDS011;25529;49.346;20.886;2022-09-03T03:07:54;12.40;;;4.13;;
39860;SDS011;25529;49.346;20.886;2022-09-03T03:10:20;14.23;;;3.83;;
39860;SDS011;25529;49.346;20.886;2022-09-03T03:12:46;13.68;;;4.20;;
39860;SDS011;25529;49.346;20.886;2022-09-03T03:15:11;11.27;;;4.18;;
39860;SDS011;25529;49.346;20.886;2022-09-03T03:17:36;8.90;;;3.63;;
39860;SDS011;25529;49.346;20.886;2022-09-03T03:20:02;12.45;;;4.05;;
39860;SDS011;25529;49.346;20.886;2022-09-03T03:22:27;8.32;;;3.67;;
39860;SDS011;25529;49.346;20.886;2022-09-03T03:24:53;7.93;;;3.58;;
39860;SDS011;25529;49.346;20.886;2022-09-03T03:27:21;8.77;;;3.72;;
39860;SDS011;25529;49.346;20.886;2022-09-03T03:29:46;8.45;;;3.53;;
39860;SDS011;25529;49.346;20.886;2022-09-03T03:32:12;10.77;;;3.65;;
39860;SDS011;25529;49.346;20.886;2022-09-03T03:34:37;9.30;;;3.60;;
39860;SDS011;25529;49.346;20.886;2022-09-03T03:37:04;10.25;;;3.83;;
39860;SDS011;25529;49.346;20.886;2022-09-03T03:39:29;10.13;;;3.83;;
39860;SDS011;25529;49.346;20.886;2022-09-03T03:41:55;8.20;;;3.80;;
39860;SDS011;25529;49.346;20.886;2022-09-03T03:44:20;7.18;;;3.60;;
39860;SDS011;25529;49.346;20.886;2022-09-03T03:46:46;9.23;;;3.90;;
39860;SDS011;25529;49.346;20.886;2022-09-03T03:49:11;8.80;;;3.50;;
39860;SDS011;25529;49.346;20.886;2022-09-03T03:51:37;7.82;;;3.53;;
39860;SDS011;25529;49.346;20.886;2022-09-03T03:54:15;7.53;;;3.67;;
39860;SDS011;25529;49.346;20.886;2022-09-03T03:56:40;10.50;;;3.65;;
39860;SDS011;25529;49.346;20.886;2022-09-03T03:59:06;12.20;;;3.83;;
39860;SDS011;25529;49.346;20.886;2022-09-03T04:01:40;8.30;;;3.60;;
39860;SDS011;25529;49.346;20.886;2022-09-03T04:04:08;9.73;;;3.65;;
39860;SDS011;25529;49.346;20.886;2022-09-03T04:06:36;8.82;;;3.42;;
39860;SDS011;25529;49.346;20.886;2022-09-03T04:09:05;6.95;;;3.40;;
39860;SDS011;25529;49.346;20.886;2022-09-03T04:11:31;8.30;;;3.47;;
39860;SDS011;25529;49.346;20.886;2022-09-03T04:13:56;10.25;;;3.60;;
39860;SDS011;25529;49.346;20.886;2022-09-03T04:16:23;7.43;;;3.60;;
39860;SDS011;25529;49.346;20.886;2022-09-03T04:18:49;8.20;;;3.30;;
39860;SDS011;25529;49.346;20.886;2022-09-03T04:21:16;9.90;;;3.50;;
39860;SDS011;25529;49.346;20.886;2022-09-03T04:23:45;9.73;;;3.70;;
39860;SDS011;25529;49.346;20.886;2022-09-03T04:26:15;11.18;;;3.30;;
39860;SDS011;25529;49.346;20.886;2022-09-03T04:28:45;9.48;;;3.60;;
39860;SDS011;25529;49.346;20.886;2022-09-03T04:31:11;7.18;;;3.42;;
39860;SDS011;25529;49.346;20.886;2022-09-03T04:33:40;7.70;;;3.53;;
39860;SDS011;25529;49.346;20.886;2022-09-03T04:36:09;7.88;;;3.63;;
39860;SDS011;25529;49.346;20.886;2022-09-03T04:38:39;9.18;;;3.30;;
39860;SDS011;25529;49.346;20.886;2022-09-03T04:41:06;7.88;;;3.47;;
39860;SDS011;25529;49.346;20.886;2022-09-03T04:43:32;8.50;;;3.58;;
39860;SDS011;25529;49.346;20.886;2022-09-03T04:46:00;8.88;;;3.60;;
39860;SDS011;25529;49.346;20.886;2022-09-03T04:48:36;7.88;;;3.28;;
39860;SDS011;25529;49.346;20.886;2022-09-03T04:51:12;7.95;;;3.40;;
39860;SDS011;25529;49.346;20.886;2022-09-03T04:53:39;6.60;;;3.20;;
39860;SDS011;25529;49.346;20.886;2022-09-03T04:56:15;5.78;;;3.30;;
39860;SDS011;25529;49.346;20.886;2022-09-03T04:58:47;7.63;;;3.33;;
39860;SDS011;25529;49.346;20.886;2022-09-03T05:01:17;6.97;;;3.40;;
39860;SDS011;25529;49.346;20.886;2022-09-03T05:03:43;13.05;;;3.80;;
39860;SDS011;25529;49.346;20.886;2022-09-03T05:06:09;5.43;;;3.28;;
39860;SDS011;25529;49.346;20.886;2022-09-03T05:08:35;16.10;;;5.68;;
39860;SDS011;25529;49.346;20.886;2022-09-03T05:11:04;6.50;;;3.35;;
39860;SDS011;25529;49.346;20.886;2022-09-03T05:13:30;15.82;;;5.60;;
39860;SDS011;25529;49.346;20.886;2022-09-03T05:16:02;19.95;;;7.63;;
39860;SDS011;25529;49.346;20.886;2022-09-03T05:18:29;5.03;;;3.20;;
39860;SDS011;25529;49.346;20.886;2022-09-03T05:21:01;6.05;;;3.20;;
39860;SDS011;25529;49.346;20.886;2022-09-03T05:23:27;6.65;;;3.30;;
39860;SDS011;25529;49.346;20.886;2022-09-03T05:25:55;5.22;;;3.10;;
39860;SDS011;25529;49.346;20.886;2022-09-03T05:28:23;8.80;;;3.50;;
39860;SDS011;25529;49.346;20.886;2022-09-03T05:30:57;6.10;;;3.10;;
39860;SDS011;25529;49.346;20.886;2022-09-03T05:33:22;4.68;;;3.10;;
39860;SDS011;25529;49.346;20.886;2022-09-03T05:35:48;5.95;;;3.10;;
39860;SDS011;25529;49.346;20.886;2022-09-03T05:38:13;4.47;;;2.92;;
39860;SDS011;25529;49.346;20.886;2022-09-03T05:40:42;7.65;;;3.10;;
39860;SDS011;25529;49.346;20.886;2022-09-03T05:43:07;4.95;;;3.15;;
39860;SDS011;25529;49.346;20.886;2022-09-03T05:45:32;6.00;;;3.20;;
39860;SDS011;25529;49.346;20.886;2022-09-03T05:47:58;3.47;;;2.70;;
39860;SDS011;25529;49.346;20.886;2022-09-03T05:50:24;5.38;;;2.88;;
39860;SDS011;25529;49.346;20.886;2022-09-03T05:52:52;5.07;;;3.10;;
39860;SDS011;25529;49.346;20.886;2022-09-03T05:55:23;5.88;;;2.92;;
39860;SDS011;25529;49.346;20.886;2022-09-03T05:58:53;4.07;;;2.90;;
39860;SDS011;25529;49.346;20.886;2022-09-03T06:04:35;5.25;;;3.00;;
39860;SDS011;25529;49.346;20.886;2022-09-03T06:07:01;5.75;;;3.00;;
39860;SDS011;25529;49.346;20.886;2022-09-03T06:09:36;7.28;;;3.10;;
39860;SDS011;25529;49.346;20.886;2022-09-03T06:15:54;6.45;;;2.88;;
39860;SDS011;25529;49.346;20.886;2022-09-03T06:18:17;3.08;;;2.70;;
39860;SDS011;25529;49.346;20.886;2022-09-03T06:30:13;5.35;;;3.08;;
39860;SDS011;25529;49.346;20.886;2022-09-03T06:32:46;5.53;;;3.05;;
39860;SDS011;25529;49.346;20.886;2022-09-03T06:35:16;5.50;;;2.92;;
39860;SDS011;25529;49.346;20.886;2022-09-03T06:38:05;7.20;;;3.38;;
39860;SDS011;25529;49.346;20.886;2022-09-03T06:40:39;5.88;;;2.90;;
39860;SDS011;25529;49.346;20.886;2022-09-03T06:51:57;4.13;;;3.03;;
39860;SDS011;25529;49.346;20.886;2022-09-03T06:54:34;4.20;;;3.10;;
39860;SDS011;25529;49.346;20.886;2022-09-03T07:02:54;7.88;;;3.20;;
39860;SDS011;25529;49.346;20.886;2022-09-03T07:05:25;4.18;;;3.10;;
39860;SDS011;25529;49.346;20.886;2022-09-03T07:07:52;28.10;;;13.13;;
39860;SDS011;25529;49.346;20.886;2022-09-03T07:10:18;10.25;;;4.10;;
39860;SDS011;25529;49.346;20.886;2022-09-03T07:12:44;9.40;;;3.88;;
39860;SDS011;25529;49.346;20.886;2022-09-03T07:15:19;6.35;;;3.20;;
39860;SDS011;25529;49.346;20.886;2022-09-03T07:17:44;8.40;;;3.60;;
39860;SDS011;25529;49.346;20.886;2022-09-03T07:23:15;6.82;;;3.05;;
39860;SDS011;25529;49.346;20.886;2022-09-03T07:32:11;7.53;;;3.30;;
39860;SDS011;25529;49.346;20.886;2022-09-03T07:38:32;7.72;;;3.40;;
39860;SDS011;25529;49.346;20.886;2022-09-03T07:47:05;6.35;;;3.40;;
39860;SDS011;25529;49.346;20.886;2022-09-03T07:59:21;7.45;;;3.20;;
39860;SDS011;25529;49.346;20.886;2022-09-03T08:14:05;4.15;;;3.00;;
39860;SDS011;25529;49.346;20.886;2022-09-03T08:31:57;7.68;;;3.80;;
39860;SDS011;25529;49.346;20.886;2022-09-03T08:34:22;8.98;;;3.90;;
39860;SDS011;25529;49.346;20.886;2022-09-03T08:36:53;9.52;;;4.10;;
39860;SDS011;25529;49.346;20.886;2022-09-03T08:39:27;9.68;;;4.15;;
39860;SDS011;25529;49.346;20.886;2022-09-03T08:42:05;10.05;;;4.03;;
39860;SDS011;25529;49.346;20.886;2022-09-03T08:44:54;8.07;;;4.05;;
39860;SDS011;25529;49.346;20.886;2022-09-03T08:56:39;8.52;;;4.20;;
39860;SDS011;25529;49.346;20.886;2022-09-03T09:53:06;7.93;;;4.00;;
39860;SDS011;25529;49.346;20.886;2022-09-03T09:55:47;9.20;;;4.35;;
39860;SDS011;25529;49.346;20.886;2022-09-03T09:58:12;8.65;;;4.07;;
39860;SDS011;25529;49.346;20.886;2022-09-03T10:03:57;9.77;;;4.28;;
39860;SDS011;25529;49.346;20.886;2022-09-03T10:06:23;8.98;;;4.20;;
39860;SDS011;25529;49.346;20.886;2022-09-03T10:09:12;6.35;;;3.80;;
39860;SDS011;25529;49.346;20.886;2022-09-03T10:38:44;13.50;;;4.25;;
39860;SDS011;25529;49.346;20.886;2022-09-03T10:59:53;8.10;;;4.00;;
39860;SDS011;25529;49.346;20.886;2022-09-03T11:08:58;8.55;;;4.00;;
39860;SDS011;25529;49.346;20.886;2022-09-03T11:11:34;8.02;;;3.88;;
39860;SDS011;25529;49.346;20.886;2022-09-03T11:22:43;8.75;;;3.90;;
39860;SDS011;25529;49.346;20.886;2022-09-03T11:25:16;7.93;;;4.05;;
39860;SDS011;25529;49.346;20.886;2022-09-03T11:33:55;8.50;;;4.03;;
39860;SDS011;25529;49.346;20.886;2022-09-03T11:42:09;6.38;;;3.42;;
39860;SDS011;25529;49.346;20.886;2022-09-03T11:51:16;8.30;;;3.92;;
39860;SDS011;25529;49.346;20.886;2022-09-03T12:32:35;7.32;;;4.03;;
39860;SDS011;25529;49.346;20.886;2022-09-03T12:35:14;10.20;;;4.35;;
39860;SDS011;25529;49.346;20.886;2022-09-03T12:37:40;11.10;;;4.43;;
39860;SDS011;25529;49.346;20.886;2022-09-03T12:43:25;15.05;;;5.53;;
39860;SDS011;25529;49.346;20.886;2022-09-03T12:58:31;8.75;;;4.25;;
39860;SDS011;25529;49.346;20.886;2022-09-03T13:01:23;8.52;;;4.20;;
39860;SDS011;25529;49.346;20.886;2022-09-03T13:04:12;9.18;;;4.40;;
39860;SDS011;25529;49.346;20.886;2022-09-03T13:06:52;18.45;;;5.97;;
39860;SDS011;25529;49.346;20.886;2022-09-03T13:09:24;30.20;;;11.70;;
39860;SDS011;25529;49.346;20.886;2022-09-03T13:12:00;28.90;;;10.95;;
39860;SDS011;25529;49.346;20.886;2022-09-03T13:14:51;22.35;;;7.45;;
39860;SDS011;25529;49.346;20.886;2022-09-03T13:17:22;16.88;;;6.40;;
39860;SDS011;25529;49.346;20.886;2022-09-03T13:31:28;16.10;;;5.60;;
39860;SDS011;25529;49.346;20.886;2022-09-03T13:37:08;14.35;;;5.28;;
39860;SDS011;25529;49.346;20.886;2022-09-03T13:39:57;12.52;;;4.80;;
39860;SDS011;25529;49.346;20.886;2022-09-03T13:42:31;14.18;;;5.82;;
39860;SDS011;25529;49.346;20.886;2022-09-03T13:45:15;13.95;;;5.32;;
39860;SDS011;25529;49.346;20.886;2022-09-03T13:50:53;12.15;;;5.00;;
39860;SDS011;25529;49.346;20.886;2022-09-03T13:58:55;12.35;;;5.00;;
39860;SDS011;25529;49.346;20.886;2022-09-03T14:05:07;13.35;;;4.90;;
39860;SDS011;25529;49.346;20.886;2022-09-03T14:07:13;14.55;;;5.40;;
39860;SDS011;25529;49.346;20.886;2022-09-03T14:10:05;14.85;;;5.05;;
39860;SDS011;25529;49.346;20.886;2022-09-03T14:12:41;13.40;;;4.90;;
39860;SDS011;25529;49.346;20.886;2022-09-03T14:18:14;8.98;;;4.40;;
39860;SDS011;25529;49.346;20.886;2022-09-03T14:26:59;18.20;;;5.90;;
39860;SDS011;25529;49.346;20.886;2022-09-03T14:29:32;18.73;;;6.80;;
39860;SDS011;25529;49.346;20.886;2022-09-03T14:51:13;11.77;;;4.75;;
39860;SDS011;25529;49.346;20.886;2022-09-03T15:43:52;17.77;;;6.18;;
39860;SDS011;25529;49.346;20.886;2022-09-03T19:24:44;22.67;;;8.77;;
39860;SDS011;25529;49.346;20.886;2022-09-03T19:27:30;23.20;;;9.38;;
39860;SDS011;25529;49.346;20.886;2022-09-03T19:30:44;22.35;;;8.35;;
39860;SDS011;25529;49.346;20.886;2022-09-03T22:12:05;23.85;;;9.98;;
39860;SDS011;25529;49.346;20.886;2022-09-03T22:21:29;22.92;;;9.85;;
39860;SDS011;25529;49.346;20.886;2022-09-03T23:08:31;22.50;;;9.37;;
